createdAt,value
2023-05-22T00:01:56.869Z,17.30
2023-05-22T00:04:24.058Z,17.30
2023-05-22T00:06:51.060Z,17.20
2023-05-22T00:09:18.202Z,17.20
2023-05-22T00:11:45.255Z,17.10
2023-05-22T00:14:13.769Z,17.10
2023-05-22T00:16:41.455Z,17.00
2023-05-22T00:19:17.066Z,16.90
2023-05-22T00:21:44.625Z,16.80
2023-05-22T00:24:11.592Z,16.80
2023-05-22T00:26:38.642Z,16.80
2023-05-22T00:29:08.547Z,16.90
2023-05-22T00:31:35.675Z,16.80
2023-05-22T00:34:02.750Z,16.70
2023-05-22T00:36:29.719Z,16.60
2023-05-22T00:38:56.633Z,16.60
2023-05-22T00:41:23.863Z,16.60
2023-05-22T00:43:51.460Z,16.70
2023-05-22T00:46:23.154Z,16.60
2023-05-22T00:48:50.240Z,16.60
2023-05-22T00:51:17.282Z,16.50
2023-05-22T00:53:45.140Z,16.50
2023-05-22T00:56:13.239Z,16.50
2023-05-22T00:58:40.260Z,16.50
2023-05-22T01:01:09.827Z,16.60
2023-05-22T01:03:44.820Z,16.50
2023-05-22T01:06:16.072Z,16.50
2023-05-22T01:08:43.275Z,16.40
2023-05-22T01:11:22.364Z,16.30
2023-05-22T01:14:12.572Z,16.20
2023-05-22T01:16:52.709Z,16.20
2023-05-22T01:19:36.672Z,16.30
2023-05-22T01:22:46.258Z,16.30
2023-05-22T01:25:37.027Z,16.20
2023-05-22T01:28:30.960Z,16.10
2023-05-22T01:31:02.584Z,15.90
2023-05-22T01:33:42.032Z,15.90
2023-05-22T01:36:12.498Z,15.80
2023-05-22T01:38:40.932Z,15.90
2023-05-22T01:41:08.170Z,15.80
2023-05-22T01:43:36.699Z,15.80
2023-05-22T01:46:04.134Z,15.80
2023-05-22T01:48:31.149Z,15.80
2023-05-22T01:51:05.400Z,15.80
2023-05-22T01:53:45.227Z,15.70
2023-05-22T01:56:21.174Z,15.60
2023-05-22T01:59:01.758Z,15.60
2023-05-22T02:01:33.487Z,15.50
2023-05-22T02:04:02.172Z,15.40
2023-05-22T02:06:32.414Z,15.40
2023-05-22T02:09:01.794Z,15.50
2023-05-22T02:11:31.286Z,15.50
2023-05-22T02:13:58.676Z,15.60
2023-05-22T02:16:25.954Z,15.50
2023-05-22T02:19:06.064Z,15.50
2023-05-22T02:21:34.746Z,15.40
2023-05-22T02:24:02.678Z,15.40
2023-05-22T02:26:29.683Z,15.40
2023-05-22T02:28:56.870Z,15.40
2023-05-22T02:31:23.854Z,15.30
2023-05-22T02:33:50.997Z,15.30
2023-05-22T02:36:17.989Z,15.20
2023-05-22T02:38:44.898Z,15.10
2023-05-22T02:41:11.877Z,15.10
2023-05-22T02:43:38.811Z,15.00
2023-05-22T02:46:05.808Z,15.00
2023-05-22T02:48:32.772Z,15.10
2023-05-22T02:50:59.702Z,15.20
2023-05-22T02:53:26.975Z,15.20
2023-05-22T02:55:53.971Z,15.10
2023-05-22T02:58:21.275Z,15.00
2023-05-22T03:00:48.453Z,15.00
2023-05-22T03:03:18.149Z,14.90
2023-05-22T03:05:48.350Z,14.90
2023-05-22T03:08:16.143Z,14.90
2023-05-22T03:10:43.048Z,14.90
2023-05-22T03:13:09.952Z,15.00
2023-05-22T03:15:36.930Z,15.00
2023-05-22T03:18:03.912Z,15.00
2023-05-22T03:20:31.457Z,15.00
2023-05-22T03:22:58.539Z,14.90
2023-05-22T03:25:25.496Z,14.90
2023-05-22T03:27:52.424Z,15.00
2023-05-22T03:30:19.410Z,14.90
2023-05-22T03:32:46.441Z,14.90
2023-05-22T03:35:15.670Z,14.90
2023-05-22T03:37:42.645Z,15.00
2023-05-22T03:40:10.302Z,15.20
2023-05-22T03:42:37.201Z,15.40
2023-05-22T03:45:04.448Z,15.60
2023-05-22T03:47:31.532Z,15.80
2023-05-22T03:49:58.431Z,15.90
2023-05-22T03:52:25.805Z,16.10
2023-05-22T03:54:53.702Z,16.30
2023-05-22T03:57:20.763Z,16.40
2023-05-22T03:59:47.705Z,16.70
2023-05-22T04:02:16.917Z,17.00
2023-05-22T04:04:46.358Z,17.30
2023-05-22T04:07:13.659Z,17.60
2023-05-22T04:09:41.598Z,17.80
2023-05-22T04:12:08.830Z,17.90
2023-05-22T04:14:35.866Z,18.00
2023-05-22T04:17:02.851Z,17.90
2023-05-22T04:19:30.363Z,17.80
2023-05-22T04:21:58.551Z,17.60
2023-05-22T04:24:25.597Z,17.50
2023-05-22T04:26:52.871Z,17.40
2023-05-22T04:29:22.165Z,17.40
2023-05-22T04:31:49.142Z,17.40
2023-05-22T04:34:17.138Z,17.50
2023-05-22T04:36:45.378Z,17.60
2023-05-22T04:39:14.025Z,17.60
2023-05-22T04:41:41.137Z,17.70
2023-05-22T04:44:08.679Z,17.80
2023-05-22T04:46:36.153Z,17.90
2023-05-22T04:49:03.470Z,18.00
2023-05-22T04:51:35.167Z,18.10
2023-05-22T04:54:02.159Z,18.20
2023-05-22T04:56:36.425Z,18.20
2023-05-22T04:59:05.671Z,18.60
2023-05-22T05:01:33.620Z,18.80
2023-05-22T05:04:00.926Z,18.90
2023-05-22T05:06:28.019Z,19.00
2023-05-22T05:08:55.091Z,19.00
2023-05-22T05:11:22.000Z,19.10
2023-05-22T05:13:48.925Z,19.10
2023-05-22T05:16:16.249Z,19.10
2023-05-22T05:18:43.723Z,19.10
2023-05-22T05:21:11.081Z,19.20
2023-05-22T05:23:38.047Z,19.20
2023-05-22T05:26:05.203Z,19.10
2023-05-22T05:28:32.146Z,19.10
2023-05-22T05:30:59.041Z,19.10
2023-05-22T05:33:26.025Z,19.10
2023-05-22T05:35:52.976Z,19.00
2023-05-22T05:38:20.003Z,19.10
2023-05-22T05:40:47.272Z,19.10
2023-05-22T05:43:15.396Z,19.10
2023-05-22T05:45:43.738Z,19.10
2023-05-22T05:48:12.109Z,19.10
2023-05-22T05:50:39.479Z,19.10
2023-05-22T05:53:07.151Z,19.20
2023-05-22T05:55:34.717Z,19.20
2023-05-22T05:58:01.807Z,19.30
2023-05-22T06:00:28.816Z,19.60
2023-05-22T06:02:56.192Z,20.00
2023-05-22T06:05:23.586Z,20.70
2023-05-22T06:07:50.718Z,21.20
2023-05-22T06:10:17.696Z,21.50
2023-05-22T06:12:44.679Z,21.40
2023-05-22T06:15:13.750Z,21.10
2023-05-22T06:17:40.982Z,20.90
2023-05-22T06:20:09.282Z,20.70
2023-05-22T06:22:36.729Z,20.90
2023-05-22T06:25:03.838Z,21.20
2023-05-22T06:27:30.875Z,21.90
2023-05-22T06:29:58.003Z,22.80
2023-05-22T06:32:25.047Z,23.40
2023-05-22T06:34:52.023Z,24.10
2023-05-22T06:37:18.957Z,24.70
2023-05-22T06:39:45.893Z,24.90
2023-05-22T06:42:12.852Z,25.60
2023-05-22T06:44:39.764Z,25.60
2023-05-22T06:47:07.111Z,25.20
2023-05-22T06:49:34.025Z,24.70
2023-05-22T06:52:01.508Z,25.10
2023-05-22T06:54:29.692Z,25.70
2023-05-22T06:56:57.556Z,25.60
2023-05-22T06:59:24.531Z,25.00
2023-05-22T07:01:51.544Z,24.70
2023-05-22T07:04:18.542Z,24.40
2023-05-22T07:06:45.762Z,23.90
2023-05-22T07:09:14.009Z,23.70
2023-05-22T07:11:42.932Z,23.40
2023-05-22T07:14:12.540Z,23.40
2023-05-22T07:16:41.444Z,23.10
2023-05-22T07:19:12.149Z,23.20
2023-05-22T07:21:39.272Z,23.20
2023-05-22T07:24:09.114Z,23.10
2023-05-22T07:26:36.801Z,22.80
2023-05-22T07:29:05.091Z,22.70
2023-05-22T07:31:33.762Z,22.50
2023-05-22T07:34:01.026Z,22.20
2023-05-22T07:36:27.927Z,22.20
2023-05-22T07:38:54.855Z,22.30
2023-05-22T07:41:22.779Z,22.20
2023-05-22T07:43:49.905Z,22.30
2023-05-22T07:46:16.902Z,22.30
2023-05-22T07:48:43.965Z,22.40
2023-05-22T07:51:10.937Z,22.40
2023-05-22T07:53:37.894Z,22.40
2023-05-22T07:56:05.305Z,22.60
2023-05-22T07:58:32.290Z,23.10
2023-05-22T08:00:59.355Z,23.90
2023-05-22T08:03:26.632Z,24.40
2023-05-22T08:05:53.634Z,24.90
2023-05-22T08:08:20.605Z,24.80
2023-05-22T08:11:03.058Z,25.20
2023-05-22T08:13:30.979Z,25.20
2023-05-22T08:16:00.317Z,25.00
2023-05-22T08:18:29.427Z,24.70
2023-05-22T08:20:56.866Z,24.60
2023-05-22T08:23:23.847Z,24.90
2023-05-22T08:25:50.995Z,25.40
2023-05-22T08:28:18.041Z,25.40
2023-05-22T08:30:44.935Z,26.00
2023-05-22T08:33:12.356Z,26.20
2023-05-22T08:35:39.810Z,25.60
2023-05-22T08:38:06.743Z,25.20
2023-05-22T08:40:38.705Z,24.60
2023-05-22T08:43:06.698Z,24.70
2023-05-22T08:45:34.720Z,25.00
2023-05-22T08:48:06.518Z,24.80
2023-05-22T08:50:38.533Z,24.30
2023-05-22T08:53:08.218Z,24.00
2023-05-22T08:55:36.972Z,24.10
2023-05-22T08:58:05.531Z,24.30
2023-05-22T09:00:33.484Z,24.30
2023-05-22T09:03:00.591Z,24.70
2023-05-22T09:05:28.931Z,25.00
2023-05-22T09:08:02.592Z,25.10
2023-05-22T09:10:32.478Z,25.60
2023-05-22T09:13:11.438Z,25.90
2023-05-22T09:15:38.709Z,26.30
2023-05-22T09:18:06.473Z,26.60
2023-05-22T09:20:39.005Z,26.80
2023-05-22T09:23:20.373Z,26.80
2023-05-22T09:25:47.827Z,27.30
2023-05-22T09:28:14.876Z,27.10
2023-05-22T09:30:42.617Z,26.60
2023-05-22T09:33:14.331Z,26.20
2023-05-22T09:35:42.268Z,25.90
2023-05-22T09:38:11.441Z,25.80
2023-05-22T09:40:40.654Z,26.60
2023-05-22T09:43:11.537Z,26.80
2023-05-22T09:45:39.617Z,26.20
2023-05-22T09:48:08.873Z,25.60
2023-05-22T09:50:37.009Z,25.30
2023-05-22T09:53:05.146Z,25.40
2023-05-22T09:55:33.807Z,25.40
2023-05-22T09:58:05.343Z,25.70
2023-05-22T10:00:34.342Z,25.90
2023-05-22T10:03:12.085Z,26.00
2023-05-22T10:05:45.128Z,26.10
2023-05-22T10:08:15.144Z,26.20
2023-05-22T10:10:47.752Z,26.30
2023-05-22T10:13:15.031Z,26.10
2023-05-22T10:15:42.090Z,26.10
2023-05-22T10:18:09.943Z,26.20
2023-05-22T10:20:37.599Z,26.10
2023-05-22T10:23:04.990Z,26.20
2023-05-22T10:25:32.550Z,26.30
2023-05-22T10:28:00.010Z,26.20
2023-05-22T10:30:44.977Z,25.90
2023-05-22T10:33:18.376Z,25.80
2023-05-22T10:35:57.561Z,25.90
2023-05-22T10:38:33.371Z,26.10
2023-05-22T10:41:01.633Z,26.10
2023-05-22T10:43:33.810Z,25.90
2023-05-22T10:46:04.642Z,25.80
2023-05-22T10:48:38.791Z,25.70
2023-05-22T10:51:09.759Z,25.70
2023-05-22T10:53:37.111Z,25.70
2023-05-22T10:56:14.874Z,25.70
2023-05-22T10:58:55.828Z,25.70
2023-05-22T11:01:26.742Z,26.00
2023-05-22T11:04:11.688Z,25.90
2023-05-22T11:07:01.993Z,25.80
2023-05-22T11:09:31.359Z,25.70
2023-05-22T11:12:16.826Z,25.50
2023-05-22T11:15:06.841Z,25.50
2023-05-22T11:17:41.274Z,25.80
2023-05-22T11:20:21.139Z,25.80
2023-05-22T11:23:01.565Z,25.70
2023-05-22T11:25:30.228Z,25.70
2023-05-22T11:27:58.586Z,25.80
2023-05-22T11:30:27.970Z,25.80
2023-05-22T11:32:55.006Z,25.80
2023-05-22T11:35:22.673Z,25.70
2023-05-22T11:37:51.363Z,25.90
2023-05-22T11:40:24.649Z,25.90
2023-05-22T11:42:52.792Z,25.90
2023-05-22T11:45:19.934Z,26.20
2023-05-22T11:47:47.160Z,26.40
2023-05-22T11:50:17.936Z,26.40
2023-05-22T11:52:50.232Z,26.40
2023-05-22T11:55:17.355Z,26.20
2023-05-22T11:57:44.480Z,26.20
2023-05-22T12:00:12.125Z,26.20
2023-05-22T12:02:39.604Z,26.20
2023-05-22T12:05:10.231Z,26.10
2023-05-22T12:07:37.777Z,26.10
2023-05-22T12:10:07.497Z,26.20
2023-05-22T12:12:34.557Z,26.30
2023-05-22T12:15:01.458Z,26.40
2023-05-22T12:17:29.423Z,26.30
2023-05-22T12:19:57.920Z,26.20
2023-05-22T12:22:26.570Z,26.10
2023-05-22T12:24:53.548Z,26.00
2023-05-22T12:27:20.626Z,25.90
2023-05-22T12:29:47.545Z,26.00
2023-05-22T12:32:14.632Z,26.10
2023-05-22T12:34:46.146Z,26.00
2023-05-22T12:37:26.062Z,25.90
2023-05-22T12:39:57.408Z,25.90
2023-05-22T12:42:25.727Z,26.00
2023-05-22T12:44:57.386Z,26.10
2023-05-22T12:47:25.604Z,26.20
2023-05-22T12:49:53.263Z,26.20
2023-05-22T12:52:20.219Z,26.00
2023-05-22T12:54:47.268Z,25.90
2023-05-22T12:57:14.261Z,26.00
2023-05-22T12:59:41.368Z,26.10
2023-05-22T13:02:08.587Z,26.20
2023-05-22T13:04:35.656Z,26.40
2023-05-22T13:07:02.825Z,26.60
2023-05-22T13:09:30.004Z,26.70
2023-05-22T13:11:57.093Z,26.70
2023-05-22T13:14:24.092Z,26.70
2023-05-22T13:16:51.104Z,26.70
2023-05-22T13:19:18.165Z,26.70
2023-05-22T13:21:45.227Z,26.80
2023-05-22T13:24:12.240Z,26.60
2023-05-22T13:26:39.218Z,26.40
2023-05-22T13:29:06.683Z,26.30
2023-05-22T13:31:37.445Z,26.10
2023-05-22T13:34:05.221Z,26.10
2023-05-22T13:36:32.580Z,26.20
2023-05-22T13:38:59.566Z,26.20
2023-05-22T13:41:27.073Z,26.20
2023-05-22T13:43:54.142Z,26.20
2023-05-22T13:46:22.319Z,26.20
2023-05-22T13:48:49.449Z,26.20
2023-05-22T13:51:16.458Z,26.20
2023-05-22T13:53:43.381Z,26.30
2023-05-22T13:56:10.304Z,26.30
2023-05-22T13:58:37.180Z,26.30
2023-05-22T14:01:04.264Z,26.20
2023-05-22T14:03:31.490Z,26.30
2023-05-22T14:05:58.898Z,26.30
2023-05-22T14:08:26.066Z,26.30
2023-05-22T14:10:53.661Z,26.20
2023-05-22T14:13:20.700Z,26.20
2023-05-22T14:15:47.683Z,26.20
2023-05-22T14:18:16.616Z,26.20
2023-05-22T14:20:44.855Z,26.20
2023-05-22T14:23:15.111Z,26.30
2023-05-22T14:25:43.119Z,26.40
2023-05-22T14:28:14.105Z,26.50
2023-05-22T14:30:41.176Z,26.50
2023-05-22T14:33:08.568Z,26.50
2023-05-22T14:35:35.763Z,26.40
2023-05-22T14:38:02.690Z,26.50
2023-05-22T14:40:29.634Z,26.50
2023-05-22T14:42:56.643Z,26.50
2023-05-22T14:45:23.672Z,26.40
2023-05-22T14:47:50.883Z,26.40
2023-05-22T14:50:20.290Z,26.40
2023-05-22T14:52:48.861Z,26.30
2023-05-22T14:55:16.917Z,26.30
2023-05-22T14:57:44.054Z,26.40
2023-05-22T15:00:12.404Z,26.40
2023-05-22T15:02:40.772Z,26.50
2023-05-22T15:05:08.577Z,26.50
2023-05-22T15:07:43.788Z,26.50
2023-05-22T15:10:12.343Z,26.60
2023-05-22T15:12:39.295Z,26.50
2023-05-22T15:15:06.700Z,26.50
2023-05-22T15:17:33.620Z,26.50
2023-05-22T15:20:00.556Z,26.50
2023-05-22T15:22:27.431Z,26.40
2023-05-22T15:25:08.474Z,26.30
2023-05-22T15:27:36.195Z,26.20
2023-05-22T15:30:04.578Z,26.20
2023-05-22T15:32:34.803Z,26.00
2023-05-22T15:35:01.786Z,25.90
2023-05-22T15:37:34.036Z,25.80
2023-05-22T15:40:02.208Z,25.80
2023-05-22T15:42:29.567Z,25.80
2023-05-22T15:44:58.225Z,25.70
2023-05-22T15:47:25.292Z,25.70
2023-05-22T15:49:52.362Z,25.70
2023-05-22T15:52:19.442Z,25.60
2023-05-22T15:54:46.345Z,25.60
2023-05-22T15:57:13.239Z,25.60
2023-05-22T15:59:40.205Z,25.50
2023-05-22T16:02:07.488Z,25.50
2023-05-22T16:04:34.392Z,25.40
2023-05-22T16:07:01.322Z,25.40
2023-05-22T16:09:28.988Z,25.30
2023-05-22T16:11:56.852Z,25.30
2023-05-22T16:14:23.846Z,25.30
2023-05-22T16:16:50.849Z,25.20
2023-05-22T16:19:17.902Z,25.20
2023-05-22T16:21:45.087Z,25.20
2023-05-22T16:24:12.069Z,25.10
2023-05-22T16:26:39.322Z,25.00
2023-05-22T16:29:09.499Z,24.90
2023-05-22T16:31:36.568Z,24.80
2023-05-22T16:34:04.521Z,24.70
2023-05-22T16:36:32.597Z,24.60
2023-05-22T16:38:59.611Z,24.60
2023-05-22T16:41:26.955Z,24.70
2023-05-22T16:43:54.088Z,24.70
2023-05-22T16:46:21.308Z,24.70
2023-05-22T16:48:48.544Z,24.80
2023-05-22T16:51:15.636Z,24.80
2023-05-22T16:53:42.585Z,24.80
2023-05-22T16:56:09.904Z,24.70
2023-05-22T16:58:36.830Z,24.70
2023-05-22T17:01:06.218Z,24.80
2023-05-22T17:03:33.732Z,24.70
2023-05-22T17:06:03.097Z,24.60
2023-05-22T17:08:30.223Z,24.60
2023-05-22T17:10:57.180Z,24.50
2023-05-22T17:13:24.183Z,24.40
2023-05-22T17:15:51.618Z,24.40
2023-05-22T17:18:22.593Z,24.30
2023-05-22T17:20:50.819Z,24.20
2023-05-22T17:23:18.093Z,24.20
2023-05-22T17:25:46.877Z,24.10
2023-05-22T17:28:14.698Z,24.00
2023-05-22T17:30:42.911Z,23.90
2023-05-22T17:33:10.972Z,23.80
2023-05-22T17:35:38.012Z,23.60
2023-05-22T17:38:05.056Z,23.60
2023-05-22T17:40:43.892Z,23.50
2023-05-22T17:43:12.223Z,23.50
2023-05-22T17:45:39.450Z,23.50
2023-05-22T17:48:07.607Z,23.50
2023-05-22T17:50:34.686Z,23.60
2023-05-22T17:53:01.591Z,23.60
2023-05-22T17:55:28.513Z,23.50
2023-05-22T17:57:56.211Z,23.30
2023-05-22T18:00:23.233Z,23.30
2023-05-22T18:02:50.783Z,23.20
2023-05-22T18:05:17.959Z,23.20
2023-05-22T18:07:44.911Z,23.10
2023-05-22T18:10:11.903Z,23.00
2023-05-22T18:12:38.924Z,22.90
2023-05-22T18:15:08.648Z,22.80
2023-05-22T18:17:35.909Z,22.80
2023-05-22T18:20:04.188Z,22.70
2023-05-22T18:22:31.198Z,22.50
2023-05-22T18:24:58.249Z,22.30
2023-05-22T18:27:25.212Z,22.20
2023-05-22T18:29:52.268Z,22.00
2023-05-22T18:32:19.285Z,22.00
2023-05-22T18:34:46.608Z,22.00
2023-05-22T18:37:14.117Z,21.90
2023-05-22T18:39:41.172Z,21.80
2023-05-22T18:42:08.176Z,21.60
2023-05-22T18:44:35.213Z,21.50
2023-05-22T18:47:02.254Z,21.50
2023-05-22T18:49:29.265Z,21.50
2023-05-22T18:51:56.133Z,21.60
2023-05-22T18:54:23.020Z,21.50
2023-05-22T18:56:50.668Z,21.50
2023-05-22T18:59:17.984Z,21.40
2023-05-22T19:01:45.899Z,21.30
2023-05-22T19:04:12.959Z,21.20
2023-05-22T19:06:42.037Z,21.10
2023-05-22T19:09:12.171Z,21.00
2023-05-22T19:11:39.410Z,20.90
2023-05-22T19:14:06.598Z,20.80
2023-05-22T19:16:33.652Z,20.60
2023-05-22T19:19:00.741Z,20.50
2023-05-22T19:21:27.677Z,20.40
2023-05-22T19:23:54.563Z,20.40
2023-05-22T19:26:21.711Z,20.30
2023-05-22T19:28:48.696Z,20.30
2023-05-22T19:31:16.709Z,20.10
2023-05-22T19:33:43.759Z,20.10
2023-05-22T19:36:10.747Z,20.10
2023-05-22T19:38:37.774Z,20.00
2023-05-22T19:41:04.750Z,20.00
2023-05-22T19:43:31.905Z,19.90
2023-05-22T19:45:58.911Z,19.80
2023-05-22T19:48:27.044Z,19.80
2023-05-22T19:50:53.970Z,19.60
2023-05-22T19:53:21.362Z,19.50
2023-05-22T19:55:48.628Z,19.40
2023-05-22T19:58:15.686Z,19.40
2023-05-22T20:00:43.332Z,19.40
2023-05-22T20:03:10.525Z,19.40
2023-05-22T20:05:37.898Z,19.30
2023-05-22T20:08:05.045Z,19.30
2023-05-22T20:10:33.292Z,19.20
2023-05-22T20:13:00.401Z,19.10
2023-05-22T20:15:27.437Z,19.10
2023-05-22T20:17:54.582Z,19.10
2023-05-22T20:20:24.244Z,19.00
2023-05-22T20:22:52.846Z,19.00
2023-05-22T20:25:21.313Z,18.90
2023-05-22T20:27:48.339Z,18.80
2023-05-22T20:30:15.890Z,18.70
2023-05-22T20:32:45.647Z,18.60
2023-05-22T20:35:13.279Z,18.50
2023-05-22T20:37:41.727Z,18.50
2023-05-22T20:40:09.691Z,18.60
2023-05-22T20:42:37.799Z,18.60
2023-05-22T20:45:08.847Z,18.60
2023-05-22T20:47:36.389Z,18.60
2023-05-22T20:50:03.503Z,18.50
2023-05-22T20:52:30.532Z,18.50
2023-05-22T20:54:58.148Z,18.40
2023-05-22T20:57:25.671Z,18.40
2023-05-22T20:59:56.076Z,18.40
2023-05-22T21:02:23.009Z,18.30
2023-05-22T21:04:49.973Z,18.30
2023-05-22T21:07:18.202Z,18.30
2023-05-22T21:09:45.153Z,18.20
2023-05-22T21:12:12.085Z,18.10
2023-05-22T21:14:39.043Z,18.10
2023-05-22T21:17:06.540Z,18.00
2023-05-22T21:19:33.626Z,18.10
2023-05-22T21:22:00.866Z,18.00
2023-05-22T21:24:27.751Z,18.10
2023-05-22T21:26:54.672Z,18.10
2023-05-22T21:29:21.576Z,18.00
2023-05-22T21:31:48.538Z,17.90
2023-05-22T21:34:15.737Z,17.90
2023-05-22T21:36:42.652Z,17.90
2023-05-22T21:39:09.670Z,17.80
2023-05-22T21:41:36.587Z,17.80
2023-05-22T21:44:03.508Z,17.70
2023-05-22T21:46:30.544Z,17.70
2023-05-22T21:48:57.561Z,17.70
2023-05-22T21:51:24.502Z,17.70
2023-05-22T21:53:51.598Z,17.60
2023-05-22T21:56:18.543Z,17.60
2023-05-22T21:58:45.483Z,17.60
2023-05-22T22:01:12.532Z,17.60
2023-05-22T22:03:39.546Z,17.60
2023-05-22T22:06:06.741Z,17.60
2023-05-22T22:08:33.699Z,17.50
2023-05-22T22:11:00.744Z,17.50
2023-05-22T22:13:27.648Z,17.50
2023-05-22T22:15:55.053Z,17.50
2023-05-22T22:18:22.136Z,17.40
2023-05-22T22:20:54.058Z,17.30
2023-05-22T22:23:22.040Z,17.30
2023-05-22T22:25:49.320Z,17.20
2023-05-22T22:28:16.337Z,17.10
2023-05-22T22:30:43.347Z,17.10
2023-05-22T22:33:11.734Z,17.10
2023-05-22T22:35:39.010Z,17.10
2023-05-22T22:38:06.135Z,17.10
2023-05-22T22:40:33.064Z,17.10
2023-05-22T22:42:59.950Z,17.10
2023-05-22T22:45:26.899Z,17.10
2023-05-22T22:47:56.565Z,17.10
2023-05-22T22:50:26.415Z,17.10
2023-05-22T22:52:53.544Z,17.10
2023-05-22T22:55:20.706Z,17.00
2023-05-22T22:57:50.133Z,16.90
2023-05-22T23:00:18.135Z,16.80
2023-05-22T23:02:45.235Z,16.70
2023-05-22T23:05:12.392Z,16.70
2023-05-22T23:07:39.527Z,16.70
2023-05-22T23:10:07.213Z,16.70
2023-05-22T23:12:36.280Z,16.70
2023-05-22T23:15:03.737Z,16.70
2023-05-22T23:17:30.817Z,16.70
2023-05-22T23:19:57.821Z,16.70
2023-05-22T23:22:24.728Z,16.70
2023-05-22T23:24:51.677Z,16.60
2023-05-22T23:27:18.662Z,16.70
2023-05-22T23:29:45.629Z,16.70
2023-05-22T23:32:14.547Z,16.70
2023-05-22T23:34:42.477Z,16.60
2023-05-22T23:37:09.666Z,16.60
2023-05-22T23:39:36.672Z,16.60
2023-05-22T23:42:03.933Z,16.60
2023-05-22T23:44:31.495Z,16.50
2023-05-22T23:46:58.552Z,16.50
2023-05-22T23:49:26.520Z,16.50
2023-05-22T23:51:53.566Z,16.50
2023-05-22T23:54:20.854Z,16.30
2023-05-22T23:56:48.044Z,16.30
2023-05-22T23:59:15.781Z,16.30
